sensor_id;sensor_type;location;lat;lon;timestamp;pressure;altitude;pressure_sealevel;temperature;humidity
71778;BME280;59609;52.430;4.668;2022-09-24T00:01:16;101380.47;;;13.60;100.00
71778;BME280;59609;52.430;4.668;2022-09-24T00:03:43;101386.88;;;13.60;100.00
71778;BME280;59609;52.430;4.668;2022-09-24T00:06:12;101382.38;;;13.59;100.00
71778;BME280;59609;52.430;4.668;2022-09-24T00:08:46;101384.09;;;13.60;100.00
71778;BME280;59609;52.430;4.668;2022-09-24T00:11:13;101374.94;;;13.60;100.00
71778;BME280;59609;52.430;4.668;2022-09-24T00:13:39;101383.03;;;13.61;100.00
71778;BME280;59609;52.430;4.668;2022-09-24T00:16:08;101383.91;;;13.62;100.00
71778;BME280;59609;52.430;4.668;2022-09-24T00:18:34;101381.34;;;13.60;100.00
71778;BME280;59609;52.430;4.668;2022-09-24T00:21:00;101378.38;;;13.62;100.00
71778;BME280;59609;52.430;4.668;2022-09-24T00:23:34;101378.38;;;13.62;100.00
71778;BME280;59609;52.430;4.668;2022-09-24T00:26:00;101382.00;;;13.62;100.00
71778;BME280;59609;52.430;4.668;2022-09-24T00:28:44;101375.09;;;13.66;100.00
71778;BME280;59609;52.430;4.668;2022-09-24T00:31:10;101364.88;;;13.59;100.00
71778;BME280;59609;52.430;4.668;2022-09-24T00:33:35;101373.72;;;13.62;100.00
71778;BME280;59609;52.430;4.668;2022-09-24T00:36:02;101371.66;;;13.64;100.00
71778;BME280;59609;52.430;4.668;2022-09-24T00:38:30;101378.03;;;13.65;100.00
71778;BME280;59609;52.430;4.668;2022-09-24T00:40:57;101367.81;;;13.65;100.00
71778;BME280;59609;52.430;4.668;2022-09-24T00:43:28;101362.47;;;13.64;100.00
71778;BME280;59609;52.430;4.668;2022-09-24T00:48:37;101374.72;;;13.61;100.00
71778;BME280;59609;52.430;4.668;2022-09-24T00:51:05;101353.47;;;13.62;100.00
71778;BME280;59609;52.430;4.668;2022-09-24T00:53:32;101355.19;;;13.63;100.00
71778;BME280;59609;52.430;4.668;2022-09-24T00:55:59;101356.41;;;13.60;100.00
71778;BME280;59609;52.430;4.668;2022-09-24T00:58:28;101358.63;;;13.65;100.00
71778;BME280;59609;52.430;4.668;2022-09-24T01:01:04;101359.19;;;13.60;100.00
71778;BME280;59609;52.430;4.668;2022-09-24T01:03:31;101353.47;;;13.62;100.00
71778;BME280;59609;52.430;4.668;2022-09-24T01:05:58;101354.50;;;13.61;100.00
71778;BME280;59609;52.430;4.668;2022-09-24T01:08:24;101344.63;;;13.58;100.00
71778;BME280;59609;52.430;4.668;2022-09-24T01:16:18;101348.13;;;13.60;100.00
71778;BME280;59609;52.430;4.668;2022-09-24T01:27:25;101349.81;;;13.61;100.00
71778;BME280;59609;52.430;4.668;2022-09-24T01:30:06;101348.47;;;13.57;100.00
71778;BME280;59609;52.430;4.668;2022-09-24T01:32:42;101348.47;;;13.57;100.00
71778;BME280;59609;52.430;4.668;2022-09-24T01:35:22;101341.53;;;13.53;100.00
71778;BME280;59609;52.430;4.668;2022-09-24T01:37:53;101341.19;;;13.56;100.00
71778;BME280;59609;52.430;4.668;2022-09-24T01:40:22;101343.28;;;13.54;100.00
71778;BME280;59609;52.430;4.668;2022-09-24T01:42:49;101341.53;;;13.53;100.00
71778;BME280;59609;52.430;4.668;2022-09-24T01:45:16;101339.78;;;13.52;100.00
71778;BME280;59609;52.430;4.668;2022-09-24T01:47:42;101344.31;;;13.53;100.00
71778;BME280;59609;52.430;4.668;2022-09-24T01:50:12;101332.34;;;13.53;100.00
71778;BME280;59609;52.430;4.668;2022-09-24T01:52:49;101336.00;;;13.53;100.00
71778;BME280;59609;52.430;4.668;2022-09-24T01:55:18;101328.91;;;13.51;100.00
71778;BME280;59609;52.430;4.668;2022-09-24T01:57:48;101321.78;;;13.48;100.00
71778;BME280;59609;52.430;4.668;2022-09-24T02:00:17;101326.31;;;13.49;100.00
71778;BME280;59609;52.430;4.668;2022-09-24T02:03:21;101331.69;;;13.51;100.00
71778;BME280;59609;52.430;4.668;2022-09-24T02:05:57;101324.41;;;13.50;100.00
71778;BME280;59609;52.430;4.668;2022-09-24T02:08:25;101322.66;;;13.49;100.00
71778;BME280;59609;52.430;4.668;2022-09-24T02:10:58;101321.78;;;13.48;100.00
71778;BME280;59609;52.430;4.668;2022-09-24T02:13:30;101319.03;;;13.48;100.00
71778;BME280;59609;52.430;4.668;2022-09-24T02:16:00;101308.66;;;13.42;100.00
71778;BME280;59609;52.430;4.668;2022-09-24T02:18:32;101322.16;;;13.45;100.00
71778;BME280;59609;52.430;4.668;2022-09-24T02:21:01;101315.44;;;13.48;100.00
71778;BME280;59609;52.430;4.668;2022-09-24T02:23:30;101315.75;;;13.45;100.00
71778;BME280;59609;52.430;4.668;2022-09-24T02:25:58;101314.03;;;13.44;100.00
71778;BME280;59609;52.430;4.668;2022-09-24T02:28:26;101319.56;;;13.44;100.00
71778;BME280;59609;52.430;4.668;2022-09-24T02:30:58;101309.38;;;13.44;100.00
71778;BME280;59609;52.430;4.668;2022-09-24T02:33:25;101317.84;;;13.43;100.00
71778;BME280;59609;52.430;4.668;2022-09-24T02:36:10;101317.66;;;13.44;100.00
71778;BME280;59609;52.430;4.668;2022-09-24T02:38:36;101317.84;;;13.43;100.00
71778;BME280;59609;52.430;4.668;2022-09-24T02:41:02;101311.44;;;13.42;100.00
71778;BME280;59609;52.430;4.668;2022-09-24T02:43:27;101318.69;;;13.43;100.00
71778;BME280;59609;52.430;4.668;2022-09-24T02:45:53;101316.63;;;13.45;100.00
71778;BME280;59609;52.430;4.668;2022-09-24T02:48:18;101335.84;;;13.47;100.00
71778;BME280;59609;52.430;4.668;2022-09-24T02:50:44;101333.22;;;13.45;100.00
71778;BME280;59609;52.430;4.668;2022-09-24T02:53:10;101324.91;;;13.45;100.00
71778;BME280;59609;52.430;4.668;2022-09-24T02:55:35;101327.34;;;13.48;100.00
71778;BME280;59609;52.430;4.668;2022-09-24T02:58:00;101321.13;;;13.46;100.00
71778;BME280;59609;52.430;4.668;2022-09-24T03:00:26;101314.38;;;13.49;100.00
71778;BME280;59609;52.430;4.668;2022-09-24T03:02:52;101317.13;;;13.49;100.00
71778;BME280;59609;52.430;4.668;2022-09-24T03:05:18;101307.59;;;13.59;100.00
71778;BME280;59609;52.430;4.668;2022-09-24T03:07:44;101310.53;;;13.58;100.00
71778;BME280;59609;52.430;4.668;2022-09-24T03:10:09;101314.69;;;13.62;100.00
71778;BME280;59609;52.430;4.668;2022-09-24T03:12:35;101307.25;;;13.62;100.00
71778;BME280;59609;52.430;4.668;2022-09-24T03:15:01;101316.28;;;13.64;100.00
71778;BME280;59609;52.430;4.668;2022-09-24T03:17:26;101304.84;;;13.67;100.00
71778;BME280;59609;52.430;4.668;2022-09-24T03:19:52;101310.38;;;13.67;100.00
71778;BME280;59609;52.430;4.668;2022-09-24T03:22:18;101301.38;;;13.65;100.00
71778;BME280;59609;52.430;4.668;2022-09-24T03:24:43;101300.13;;;13.68;100.00
71778;BME280;59609;52.430;4.668;2022-09-24T03:27:09;101303.97;;;13.67;100.00
71778;BME280;59609;52.430;4.668;2022-09-24T03:29:34;101296.69;;;13.66;100.00
71778;BME280;59609;52.430;4.668;2022-09-24T03:32:18;101301.00;;;13.68;100.00
71778;BME280;59609;52.430;4.668;2022-09-24T03:34:44;101289.78;;;13.62;100.00
71778;BME280;59609;52.430;4.668;2022-09-24T03:37:09;101292.19;;;13.65;100.00
71778;BME280;59609;52.430;4.668;2022-09-24T03:39:34;101301.03;;;13.60;100.00
71778;BME280;59609;52.430;4.668;2022-09-24T03:42:00;101296.19;;;13.62;100.00
71778;BME280;59609;52.430;4.668;2022-09-24T03:44:25;101297.56;;;13.58;100.00
71778;BME280;59609;52.430;4.668;2022-09-24T03:46:51;101308.63;;;13.58;100.00
71778;BME280;59609;52.430;4.668;2022-09-24T03:49:16;101303.81;;;13.60;100.00
71778;BME280;59609;52.430;4.668;2022-09-24T03:51:41;101311.06;;;13.61;100.00
71778;BME280;59609;52.430;4.668;2022-09-24T03:54:07;101304.50;;;13.54;100.00
71778;BME280;59609;52.430;4.668;2022-09-24T03:56:32;101303.28;;;13.57;100.00
71778;BME280;59609;52.430;4.668;2022-09-24T03:58:58;101310.53;;;13.58;100.00
71778;BME280;59609;52.430;4.668;2022-09-24T04:01:23;101316.25;;;13.56;100.00
71778;BME280;59609;52.430;4.668;2022-09-24T04:03:49;101315.75;;;13.53;100.00
71778;BME280;59609;52.430;4.668;2022-09-24T04:06:14;101312.31;;;13.51;100.00
71778;BME280;59609;52.430;4.668;2022-09-24T04:08:40;101308.66;;;13.50;100.00
71778;BME280;59609;52.430;4.668;2022-09-24T04:11:05;101313.50;;;13.48;100.00
71778;BME280;59609;52.430;4.668;2022-09-24T04:13:30;101306.41;;;13.46;100.00
71778;BME280;59609;52.430;4.668;2022-09-24T04:16:00;101305.72;;;13.44;100.00
71778;BME280;59609;52.430;4.668;2022-09-24T04:18:26;101304.50;;;13.46;100.00
71778;BME280;59609;52.430;4.668;2022-09-24T04:20:57;101306.09;;;13.40;100.00
71778;BME280;59609;52.430;4.668;2022-09-24T04:23:23;101315.06;;;13.43;100.00
71778;BME280;59609;52.430;4.668;2022-09-24T04:25:48;101320.75;;;13.41;100.00
71778;BME280;59609;52.430;4.668;2022-09-24T04:28:13;101314.22;;;13.34;100.00
71778;BME280;59609;52.430;4.668;2022-09-24T04:30:39;101309.88;;;13.31;100.00
71778;BME280;59609;52.430;4.668;2022-09-24T04:33:05;101316.97;;;13.26;100.00
71778;BME280;59609;52.430;4.668;2022-09-24T04:35:32;101324.25;;;13.27;100.00
71778;BME280;59609;52.430;4.668;2022-09-24T04:38:00;101319.91;;;13.24;100.00
71778;BME280;59609;52.430;4.668;2022-09-24T04:40:25;101322.84;;;13.23;100.00
71778;BME280;59609;52.430;4.668;2022-09-24T04:42:51;101320.25;;;13.21;100.00
71778;BME280;59609;52.430;4.668;2022-09-24T04:45:16;101326.66;;;13.22;100.00
71778;BME280;59609;52.430;4.668;2022-09-24T04:47:46;101327.34;;;13.24;100.00
71778;BME280;59609;52.430;4.668;2022-09-24T04:50:16;101331.16;;;13.23;100.00
71778;BME280;59609;52.430;4.668;2022-09-24T04:52:42;101324.94;;;13.21;100.00
71778;BME280;59609;52.430;4.668;2022-09-24T04:55:08;101328.72;;;13.20;100.00
71778;BME280;59609;52.430;4.668;2022-09-24T04:57:34;101331.66;;;13.18;100.00
71778;BME280;59609;52.430;4.668;2022-09-24T05:00:06;101333.56;;;13.18;100.00
71778;BME280;59609;52.430;4.668;2022-09-24T05:02:32;101335.13;;;13.20;100.00
71778;BME280;59609;52.430;4.668;2022-09-24T05:04:58;101330.78;;;13.18;100.00
71778;BME280;59609;52.430;4.668;2022-09-24T05:07:23;101334.78;;;13.23;100.00
71778;BME280;59609;52.430;4.668;2022-09-24T05:09:49;101333.94;;;13.23;100.00
71778;BME280;59609;52.430;4.668;2022-09-24T05:12:14;101321.97;;;13.22;100.00
71778;BME280;59609;52.430;4.668;2022-09-24T05:14:39;101330.13;;;13.24;100.00
71778;BME280;59609;52.430;4.668;2022-09-24T05:17:05;101335.81;;;13.22;100.00
71778;BME280;59609;52.430;4.668;2022-09-24T05:19:30;101340.84;;;13.19;100.00
71778;BME280;59609;52.430;4.668;2022-09-24T05:21:55;101332.53;;;13.19;100.00
71778;BME280;59609;52.430;4.668;2022-09-24T05:24:21;101339.81;;;13.20;100.00
71778;BME280;59609;52.430;4.668;2022-09-24T05:26:46;101329.25;;;13.15;100.00
71778;BME280;59609;52.430;4.668;2022-09-24T05:29:30;101330.28;;;13.14;100.00
71778;BME280;59609;52.430;4.668;2022-09-24T05:31:56;101340.84;;;13.19;100.00
71778;BME280;59609;52.430;4.668;2022-09-24T05:34:21;101336.84;;;13.13;100.00
71778;BME280;59609;52.430;4.668;2022-09-24T05:36:46;101342.22;;;13.15;100.00
71778;BME280;59609;52.430;4.668;2022-09-24T05:39:12;101347.38;;;13.18;100.00
71778;BME280;59609;52.430;4.668;2022-09-24T05:41:38;101358.81;;;13.15;100.00
71778;BME280;59609;52.430;4.668;2022-09-24T05:44:04;101345.69;;;13.17;100.00
71778;BME280;59609;52.430;4.668;2022-09-24T05:46:30;101353.13;;;13.16;100.00
71778;BME280;59609;52.430;4.668;2022-09-24T05:48:55;101352.94;;;13.18;100.00
71778;BME280;59609;52.430;4.668;2022-09-24T05:51:21;101353.97;;;13.17;100.00
71778;BME280;59609;52.430;4.668;2022-09-24T05:53:47;101363.34;;;13.24;100.00
71778;BME280;59609;52.430;4.668;2022-09-24T05:56:12;101364.88;;;13.18;100.00
71778;BME280;59609;52.430;4.668;2022-09-24T05:58:37;101368.88;;;13.24;100.00
71778;BME280;59609;52.430;4.668;2022-09-24T06:01:03;101374.75;;;13.21;100.00
71778;BME280;59609;52.430;4.668;2022-09-24T06:03:28;101376.66;;;13.20;100.00
71778;BME280;59609;52.430;4.668;2022-09-24T06:05:56;101373.34;;;13.17;100.00
71778;BME280;59609;52.430;4.668;2022-09-24T06:08:27;101386.84;;;13.20;100.00
71778;BME280;59609;52.430;4.668;2022-09-24T06:11:03;101381.31;;;13.20;100.00
71778;BME280;59609;52.430;4.668;2022-09-24T06:13:30;101398.59;;;13.22;100.00
71778;BME280;59609;52.430;4.668;2022-09-24T06:16:07;101388.41;;;13.22;100.00
71778;BME280;59609;52.430;4.668;2022-09-24T06:18:34;101391.84;;;13.24;100.00
71778;BME280;59609;52.430;4.668;2022-09-24T06:21:01;101386.31;;;13.16;100.00
71778;BME280;59609;52.430;4.668;2022-09-24T06:23:28;101393.41;;;13.19;100.00
71778;BME280;59609;52.430;4.668;2022-09-24T06:25:53;101402.41;;;13.21;100.00
71778;BME280;59609;52.430;4.668;2022-09-24T06:28:19;101399.31;;;13.24;100.00
71778;BME280;59609;52.430;4.668;2022-09-24T06:30:44;101407.59;;;13.24;100.00
71778;BME280;59609;52.430;4.668;2022-09-24T06:33:11;101407.25;;;13.27;100.00
71778;BME280;59609;52.430;4.668;2022-09-24T06:35:41;101405.88;;;13.23;100.00
71778;BME280;59609;52.430;4.668;2022-09-24T06:38:10;101414.69;;;13.26;100.00
71778;BME280;59609;52.430;4.668;2022-09-24T06:40:35;101414.16;;;13.31;100.00
71778;BME280;59609;52.430;4.668;2022-09-24T06:43:01;101416.25;;;13.29;100.00
71778;BME280;59609;52.430;4.668;2022-09-24T06:45:26;101410.38;;;13.32;100.00
71778;BME280;59609;52.430;4.668;2022-09-24T06:47:52;101426.28;;;13.30;100.00
71778;BME280;59609;52.430;4.668;2022-09-24T06:50:18;101424.22;;;13.32;100.00
71778;BME280;59609;52.430;4.668;2022-09-24T06:52:43;101428.53;;;13.34;100.00
71778;BME280;59609;52.430;4.668;2022-09-24T06:55:09;101424.91;;;13.34;100.00
71778;BME280;59609;52.430;4.668;2022-09-24T06:57:34;101434.97;;;13.43;100.00
71778;BME280;59609;52.430;4.668;2022-09-24T07:00:00;101437.22;;;13.48;100.00
71778;BME280;59609;52.430;4.668;2022-09-24T07:02:25;101435.13;;;13.50;100.00
71778;BME280;59609;52.430;4.668;2022-09-24T07:04:51;101436.69;;;13.52;100.00
71778;BME280;59609;52.430;4.668;2022-09-24T07:07:16;101437.91;;;13.58;100.00
71778;BME280;59609;52.430;4.668;2022-09-24T07:09:54;101437.75;;;13.59;100.00
71778;BME280;59609;52.430;4.668;2022-09-24T07:12:19;101427.50;;;13.52;100.00
71778;BME280;59609;52.430;4.668;2022-09-24T07:14:45;101440.66;;;13.58;100.00
71778;BME280;59609;52.430;4.668;2022-09-24T07:17:10;101449.50;;;13.61;100.00
71778;BME280;59609;52.430;4.668;2022-09-24T07:19:36;101445.34;;;13.65;100.00
71778;BME280;59609;52.430;4.668;2022-09-24T07:22:02;101442.94;;;13.70;100.00
71778;BME280;59609;52.430;4.668;2022-09-24T07:24:28;101445.00;;;13.84;100.00
71778;BME280;59609;52.430;4.668;2022-09-24T07:26:53;101435.47;;;13.95;100.00
71778;BME280;59609;52.430;4.668;2022-09-24T07:29:19;101450.56;;;14.01;100.00
71778;BME280;59609;52.430;4.668;2022-09-24T07:31:44;101449.16;;;14.13;100.00
71778;BME280;59609;52.430;4.668;2022-09-24T07:34:10;101440.13;;;14.19;100.00
71778;BME280;59609;52.430;4.668;2022-09-24T07:36:35;101448.75;;;14.32;100.00
71778;BME280;59609;52.430;4.668;2022-09-24T07:39:00;101450.50;;;14.33;100.00
71778;BME280;59609;52.430;4.668;2022-09-24T07:41:26;101459.53;;;14.35;100.00
71778;BME280;59609;52.430;4.668;2022-09-24T07:43:52;101456.25;;;14.39;100.00
71778;BME280;59609;52.430;4.668;2022-09-24T07:46:19;101461.94;;;14.38;100.00
71778;BME280;59609;52.430;4.668;2022-09-24T07:48:45;101463.88;;;14.37;100.00
71778;BME280;59609;52.430;4.668;2022-09-24T07:51:13;101469.44;;;14.37;100.00
71778;BME280;59609;52.430;4.668;2022-09-24T07:53:39;101474.09;;;14.37;100.00
71778;BME280;59609;52.430;4.668;2022-09-24T07:56:07;101463.84;;;14.21;100.00
71778;BME280;59609;52.430;4.668;2022-09-24T07:58:32;101476.84;;;14.29;100.00
71778;BME280;59609;52.430;4.668;2022-09-24T08:00:59;101469.22;;;14.23;100.00
71778;BME280;59609;52.430;4.668;2022-09-24T08:03:24;101474.06;;;14.29;100.00
71778;BME280;59609;52.430;4.668;2022-09-24T08:05:50;101472.34;;;14.36;100.00
71778;BME280;59609;52.430;4.668;2022-09-24T08:08:16;101465.06;;;14.35;100.00
71778;BME280;59609;52.430;4.668;2022-09-24T08:10:44;101479.13;;;14.33;100.00
71778;BME280;59609;52.430;4.668;2022-09-24T08:13:10;101474.09;;;14.37;100.00
71778;BME280;59609;52.430;4.668;2022-09-24T08:15:35;101476.31;;;14.41;100.00
71778;BME280;59609;52.430;4.668;2022-09-24T08:18:01;101480.63;;;14.52;100.00
71778;BME280;59609;52.430;4.668;2022-09-24T08:20:34;101490.69;;;14.53;100.00
71778;BME280;59609;52.430;4.668;2022-09-24T08:23:04;101491.91;;;14.51;100.00
71778;BME280;59609;52.430;4.668;2022-09-24T08:25:30;101495.38;;;14.53;100.00
71778;BME280;59609;52.430;4.668;2022-09-24T08:28:03;101501.44;;;14.56;100.00
71778;BME280;59609;52.430;4.668;2022-09-24T08:30:29;101500.56;;;14.56;100.00
71778;BME280;59609;52.430;4.668;2022-09-24T08:32:55;101491.72;;;14.60;100.00
71778;BME280;59609;52.430;4.668;2022-09-24T08:35:21;101500.19;;;14.67;100.00
71778;BME280;59609;52.430;4.668;2022-09-24T08:37:47;101503.84;;;14.67;100.00
71778;BME280;59609;52.430;4.668;2022-09-24T08:40:16;101500.50;;;14.80;100.00
71778;BME280;59609;52.430;4.668;2022-09-24T08:43:08;101498.59;;;14.80;100.00
71778;BME280;59609;52.430;4.668;2022-09-24T08:45:45;101516.28;;;14.87;100.00
71778;BME280;59609;52.430;4.668;2022-09-24T08:48:34;101508.63;;;14.89;100.00
71778;BME280;59609;52.430;4.668;2022-09-24T08:51:04;101509.81;;;14.95;100.00
71778;BME280;59609;52.430;4.668;2022-09-24T08:53:59;101513.97;;;14.99;99.68
71778;BME280;59609;52.430;4.668;2022-09-24T08:56:32;101502.34;;;14.95;100.00
71778;BME280;59609;52.430;4.668;2022-09-24T09:01:47;101511.31;;;15.06;100.00
71778;BME280;59609;52.430;4.668;2022-09-24T09:10:19;101523.06;;;15.24;96.94
71778;BME280;59609;52.430;4.668;2022-09-24T09:12:26;101517.28;;;15.33;97.21
71778;BME280;59609;52.430;4.668;2022-09-24T09:15:00;101515.53;;;15.32;97.08
71778;BME280;59609;52.430;4.668;2022-09-24T09:17:50;101529.56;;;15.39;96.19
71778;BME280;59609;52.430;4.668;2022-09-24T09:20:40;101522.47;;;15.36;94.28
71778;BME280;59609;52.430;4.668;2022-09-24T09:23:19;101529.41;;;15.32;95.86
71778;BME280;59609;52.430;4.668;2022-09-24T09:25:49;101538.41;;;15.34;96.77
71778;BME280;59609;52.430;4.668;2022-09-24T09:28:17;101537.34;;;15.43;94.64
71778;BME280;59609;52.430;4.668;2022-09-24T09:33:45;101548.94;;;15.55;95.25
71778;BME280;59609;52.430;4.668;2022-09-24T09:36:46;101550.69;;;15.56;93.20
71778;BME280;59609;52.430;4.668;2022-09-24T09:39:26;101553.97;;;15.60;94.76
71778;BME280;59609;52.430;4.668;2022-09-24T09:44:28;101556.88;;;15.66;94.78
71778;BME280;59609;52.430;4.668;2022-09-24T09:49:35;101555.00;;;15.89;95.01
71778;BME280;59609;52.430;4.668;2022-09-24T09:52:14;101552.34;;;15.96;93.14
71778;BME280;59609;52.430;4.668;2022-09-24T09:54:39;101552.97;;;16.06;94.12
71778;BME280;59609;52.430;4.668;2022-09-24T09:57:28;101552.16;;;15.98;92.24
71778;BME280;59609;52.430;4.668;2022-09-24T09:59:54;101553.09;;;15.90;90.62
71778;BME280;59609;52.430;4.668;2022-09-24T10:02:28;101561.78;;;15.87;92.04
71778;BME280;59609;52.430;4.668;2022-09-24T10:04:57;101561.06;;;15.62;89.40
71778;BME280;59609;52.430;4.668;2022-09-24T10:07:24;101563.59;;;15.41;93.18
71778;BME280;59609;52.430;4.668;2022-09-24T10:10:22;101555.66;;;15.30;90.05
71778;BME280;59609;52.430;4.668;2022-09-24T10:13:08;101558.94;;;15.25;92.75
71778;BME280;59609;52.430;4.668;2022-09-24T10:15:39;101562.44;;;15.27;91.81
71778;BME280;59609;52.430;4.668;2022-09-24T10:18:12;101555.31;;;15.25;90.95
71778;BME280;59609;52.430;4.668;2022-09-24T10:20:38;101559.97;;;15.32;90.44
71778;BME280;59609;52.430;4.668;2022-09-24T10:23:06;101561.19;;;15.30;91.57
71778;BME280;59609;52.430;4.668;2022-09-24T10:25:33;101571.22;;;15.39;91.26
71778;BME280;59609;52.430;4.668;2022-09-24T10:28:06;101552.28;;;15.42;91.62
71778;BME280;59609;52.430;4.668;2022-09-24T10:31:20;101558.34;;;15.54;88.30
71778;BME280;59609;52.430;4.668;2022-09-24T10:33:46;101566.63;;;15.62;91.04
71778;BME280;59609;52.430;4.668;2022-09-24T10:36:18;101560.31;;;15.68;87.09
71778;BME280;59609;52.430;4.668;2022-09-24T10:38:43;101570.38;;;15.77;86.75
71778;BME280;59609;52.430;4.668;2022-09-24T10:41:24;101558.50;;;15.83;86.44
71778;BME280;59609;52.430;4.668;2022-09-24T10:43:53;101564.13;;;15.98;86.36
71778;BME280;59609;52.430;4.668;2022-09-24T10:51:33;101572.25;;;16.08;86.66
71778;BME280;59609;52.430;4.668;2022-09-24T10:54:29;101568.72;;;16.14;85.05
71778;BME280;59609;52.430;4.668;2022-09-24T10:57:03;101585.91;;;16.17;84.65
71778;BME280;59609;52.430;4.668;2022-09-24T10:59:48;101575.19;;;16.29;85.74
71778;BME280;59609;52.430;4.668;2022-09-24T11:05:17;101577.56;;;16.55;84.27
71778;BME280;59609;52.430;4.668;2022-09-24T11:08:06;101583.00;;;16.48;82.43
71778;BME280;59609;52.430;4.668;2022-09-24T11:13:35;101585.31;;;16.67;80.25
71778;BME280;59609;52.430;4.668;2022-09-24T11:22:24;101570.44;;;16.75;80.83
71778;BME280;59609;52.430;4.668;2022-09-24T11:24:36;101585.22;;;16.61;79.11
71778;BME280;59609;52.430;4.668;2022-09-24T11:29:53;101578.72;;;16.83;79.48
71778;BME280;59609;52.430;4.668;2022-09-24T11:37:49;101588.63;;;17.00;78.39
71778;BME280;59609;52.430;4.668;2022-09-24T11:55:34;101592.97;;;17.61;71.13
71778;BME280;59609;52.430;4.668;2022-09-24T11:58:14;101592.22;;;17.88;70.30
71778;BME280;59609;52.430;4.668;2022-09-24T12:01:10;101593.25;;;18.02;70.75
71778;BME280;59609;52.430;4.668;2022-09-24T12:03:48;101588.56;;;18.24;70.25
71778;BME280;59609;52.430;4.668;2022-09-24T12:06:23;101576.97;;;18.48;69.44
71778;BME280;59609;52.430;4.668;2022-09-24T12:09:13;101583.69;;;18.32;68.29
71778;BME280;59609;52.430;4.668;2022-09-24T12:11:46;101589.72;;;18.15;68.88
71778;BME280;59609;52.430;4.668;2022-09-24T12:14:30;101584.81;;;17.95;66.56
71778;BME280;59609;52.430;4.668;2022-09-24T12:17:03;101584.16;;;17.93;66.47
71778;BME280;59609;52.430;4.668;2022-09-24T12:20:10;101596.00;;;17.81;67.38
71778;BME280;59609;52.430;4.668;2022-09-24T12:22:26;101594.59;;;17.70;65.53
71778;BME280;59609;52.430;4.668;2022-09-24T12:24:54;101588.22;;;17.76;68.32
71778;BME280;59609;52.430;4.668;2022-09-24T12:27:33;101588.47;;;17.60;69.18
71778;BME280;59609;52.430;4.668;2022-09-24T12:30:46;101594.78;;;17.54;67.73
71778;BME280;59609;52.430;4.668;2022-09-24T12:38:55;101598.25;;;17.56;65.84
71778;BME280;59609;52.430;4.668;2022-09-24T12:41:31;101590.63;;;17.79;66.68
71778;BME280;59609;52.430;4.668;2022-09-24T12:46:54;101589.38;;;18.18;68.84
71778;BME280;59609;52.430;4.668;2022-09-24T12:51:50;101596.72;;;18.25;66.61
71778;BME280;59609;52.430;4.668;2022-09-24T12:54:34;101603.16;;;18.26;64.87
71778;BME280;59609;52.430;4.668;2022-09-24T12:57:21;101604.06;;;18.12;62.06
71778;BME280;59609;52.430;4.668;2022-09-24T12:59:49;101607.16;;;18.17;64.32
71778;BME280;59609;52.430;4.668;2022-09-24T13:02:23;101608.09;;;18.24;63.12
71778;BME280;59609;52.430;4.668;2022-09-24T13:07:37;101592.50;;;17.93;62.33
71778;BME280;59609;52.430;4.668;2022-09-24T13:10:23;101598.50;;;17.90;62.25
71778;BME280;59609;52.430;4.668;2022-09-24T13:12:50;101606.47;;;17.93;63.19
71778;BME280;59609;52.430;4.668;2022-09-24T13:15:25;101592.91;;;17.90;62.48
71778;BME280;59609;52.430;4.668;2022-09-24T13:20:39;101599.94;;;17.86;62.40
71778;BME280;59609;52.430;4.668;2022-09-24T13:26:03;101596.53;;;18.69;60.77
71778;BME280;59609;52.430;4.668;2022-09-24T13:28:31;101593.25;;;18.87;60.95
71778;BME280;59609;52.430;4.668;2022-09-24T13:34:12;101599.78;;;18.30;59.17
71778;BME280;59609;52.430;4.668;2022-09-24T13:36:46;101593.13;;;18.31;59.08
71778;BME280;59609;52.430;4.668;2022-09-24T13:39:20;101601.81;;;18.00;58.77
71778;BME280;59609;52.430;4.668;2022-09-24T13:42:05;101610.78;;;17.96;59.27
71778;BME280;59609;52.430;4.668;2022-09-24T13:47:20;101611.66;;;17.82;60.82
71778;BME280;59609;52.430;4.668;2022-09-24T13:49:49;101601.88;;;17.42;60.82
71778;BME280;59609;52.430;4.668;2022-09-24T13:52:32;101602.56;;;17.44;63.28
71778;BME280;59609;52.430;4.668;2022-09-24T13:55:05;101615.34;;;17.53;63.76
71778;BME280;59609;52.430;4.668;2022-09-24T13:57:44;101605.44;;;17.36;64.65
71778;BME280;59609;52.430;4.668;2022-09-24T14:02:36;101609.47;;;17.48;63.95
71778;BME280;59609;52.430;4.668;2022-09-24T14:05:02;101612.94;;;17.35;63.60
71778;BME280;59609;52.430;4.668;2022-09-24T14:07:31;101609.97;;;17.37;64.93
71778;BME280;59609;52.430;4.668;2022-09-24T14:10:15;101608.78;;;17.31;65.77
71778;BME280;59609;52.430;4.668;2022-09-24T14:12:41;101622.03;;;17.15;66.90
71778;BME280;59609;52.430;4.668;2022-09-24T14:15:16;101600.91;;;17.06;67.16
71778;BME280;59609;52.430;4.668;2022-09-24T14:17:41;101614.56;;;17.15;67.05
71778;BME280;59609;52.430;4.668;2022-09-24T14:20:13;101612.63;;;17.45;67.28
71778;BME280;59609;52.430;4.668;2022-09-24T14:22:42;101620.63;;;17.33;67.53
71778;BME280;59609;52.430;4.668;2022-09-24T14:25:14;101616.69;;;17.42;64.96
71778;BME280;59609;52.430;4.668;2022-09-24T14:27:43;101625.53;;;17.46;64.51
71778;BME280;59609;52.430;4.668;2022-09-24T14:30:24;101617.38;;;17.30;64.49
71778;BME280;59609;52.430;4.668;2022-09-24T14:33:03;101624.00;;;17.43;65.67
71778;BME280;59609;52.430;4.668;2022-09-24T14:35:31;101622.47;;;17.70;65.16
71778;BME280;59609;52.430;4.668;2022-09-24T14:38:03;101623.41;;;18.13;64.73
71778;BME280;59609;52.430;4.668;2022-09-24T14:40:39;101631.81;;;18.34;63.13